sensor_id;sensor_type;location;lat;lon;timestamp;P1;durP1;ratioP1;P2;durP2;ratioP2
52434;SDS011;38354;52.892;6.148;2024-02-21T04:02:06;26.42;;;6.50;;
52434;SDS011;38354;52.892;6.148;2024-02-21T04:04:34;37.00;;;7.57;;
52434;SDS011;38354;52.892;6.148;2024-02-21T04:07:03;38.58;;;8.45;;
52434;SDS011;38354;52.892;6.148;2024-02-21T04:09:34;36.05;;;8.10;;
52434;SDS011;38354;52.892;6.148;2024-02-21T04:12:00;29.13;;;5.82;;
52434;SDS011;38354;52.892;6.148;2024-02-21T04:14:26;37.03;;;7.93;;
52434;SDS011;38354;52.892;6.148;2024-02-21T04:16:52;26.30;;;6.85;;
52434;SDS011;38354;52.892;6.148;2024-02-21T04:19:17;44.78;;;9.07;;
52434;SDS011;38354;52.892;6.148;2024-02-21T04:21:43;36.40;;;7.32;;
52434;SDS011;38354;52.892;6.148;2024-02-21T04:24:09;33.47;;;6.18;;
52434;SDS011;38354;52.892;6.148;2024-02-21T04:26:35;42.97;;;8.05;;
52434;SDS011;38354;52.892;6.148;2024-02-21T04:29:01;38.25;;;7.40;;
52434;SDS011;38354;52.892;6.148;2024-02-21T04:31:27;31.08;;;7.05;;
52434;SDS011;38354;52.892;6.148;2024-02-21T04:33:53;40.70;;;8.82;;
52434;SDS011;38354;52.892;6.148;2024-02-21T04:36:18;39.38;;;7.32;;
52434;SDS011;38354;52.892;6.148;2024-02-21T04:38:44;38.42;;;8.77;;
52434;SDS011;38354;52.892;6.148;2024-02-21T04:41:10;35.03;;;8.32;;
52434;SDS011;38354;52.892;6.148;2024-02-21T04:43:36;33.47;;;8.65;;
52434;SDS011;38354;52.892;6.148;2024-02-21T04:46:01;32.20;;;7.90;;
52434;SDS011;38354;52.892;6.148;2024-02-21T04:48:27;31.15;;;6.82;;
52434;SDS011;38354;52.892;6.148;2024-02-21T04:50:53;42.30;;;8.32;;
52434;SDS011;38354;52.892;6.148;2024-02-21T04:53:19;40.25;;;7.20;;
52434;SDS011;38354;52.892;6.148;2024-02-21T04:55:44;34.55;;;7.32;;
52434;SDS011;38354;52.892;6.148;2024-02-21T04:58:10;34.10;;;8.27;;
52434;SDS011;38354;52.892;6.148;2024-02-21T05:00:35;35.78;;;7.43;;
52434;SDS011;38354;52.892;6.148;2024-02-21T05:03:01;35.45;;;7.57;;
52434;SDS011;38354;52.892;6.148;2024-02-21T05:05:27;39.70;;;8.15;;
52434;SDS011;38354;52.892;6.148;2024-02-21T05:07:53;38.42;;;8.30;;
52434;SDS011;38354;52.892;6.148;2024-02-21T05:10:18;33.85;;;7.72;;
52434;SDS011;38354;52.892;6.148;2024-02-21T05:12:45;42.90;;;9.15;;
52434;SDS011;38354;52.892;6.148;2024-02-21T05:15:11;53.22;;;8.75;;
52434;SDS011;38354;52.892;6.148;2024-02-21T05:17:36;34.45;;;6.78;;
52434;SDS011;38354;52.892;6.148;2024-02-21T05:20:02;37.30;;;7.30;;
52434;SDS011;38354;52.892;6.148;2024-02-21T05:22:28;39.55;;;9.57;;
52434;SDS011;38354;52.892;6.148;2024-02-21T05:24:54;53.08;;;9.40;;
52434;SDS011;38354;52.892;6.148;2024-02-21T05:27:20;36.60;;;8.88;;
52434;SDS011;38354;52.892;6.148;2024-02-21T05:29:46;51.15;;;8.65;;
52434;SDS011;38354;52.892;6.148;2024-02-21T05:32:13;45.65;;;8.48;;
52434;SDS011;38354;52.892;6.148;2024-02-21T05:34:38;42.38;;;8.65;;
52434;SDS011;38354;52.892;6.148;2024-02-21T05:37:04;42.55;;;8.85;;
52434;SDS011;38354;52.892;6.148;2024-02-21T05:39:32;49.80;;;8.57;;
52434;SDS011;38354;52.892;6.148;2024-02-21T05:41:58;44.25;;;7.60;;
52434;SDS011;38354;52.892;6.148;2024-02-21T05:44:24;53.03;;;10.15;;
52434;SDS011;38354;52.892;6.148;2024-02-21T05:46:51;44.13;;;7.43;;
52434;SDS011;38354;52.892;6.148;2024-02-21T05:49:16;49.15;;;11.15;;
52434;SDS011;38354;52.892;6.148;2024-02-21T05:51:42;42.50;;;7.47;;
52434;SDS011;38354;52.892;6.148;2024-02-21T05:54:07;35.88;;;7.45;;
52434;SDS011;38354;52.892;6.148;2024-02-21T05:56:33;48.22;;;9.52;;
52434;SDS011;38354;52.892;6.148;2024-02-21T05:58:59;48.58;;;8.10;;
52434;SDS011;38354;52.892;6.148;2024-02-21T06:01:25;38.85;;;7.38;;
52434;SDS011;38354;52.892;6.148;2024-02-21T06:03:51;50.65;;;8.15;;
52434;SDS011;38354;52.892;6.148;2024-02-21T06:06:16;39.08;;;7.32;;
52434;SDS011;38354;52.892;6.148;2024-02-21T06:08:42;39.60;;;6.85;;
52434;SDS011;38354;52.892;6.148;2024-02-21T06:11:08;35.15;;;6.10;;
52434;SDS011;38354;52.892;6.148;2024-02-21T06:13:33;42.63;;;8.20;;
52434;SDS011;38354;52.892;6.148;2024-02-21T06:16:03;31.27;;;7.20;;
52434;SDS011;38354;52.892;6.148;2024-02-21T06:18:29;46.53;;;6.45;;
52434;SDS011;38354;52.892;6.148;2024-02-21T06:20:55;40.65;;;6.47;;
52434;SDS011;38354;52.892;6.148;2024-02-21T06:23:21;37.25;;;5.43;;
52434;SDS011;38354;52.892;6.148;2024-02-21T06:25:47;29.77;;;5.38;;
52434;SDS011;38354;52.892;6.148;2024-02-21T06:28:12;33.78;;;5.78;;
52434;SDS011;38354;52.892;6.148;2024-02-21T06:30:39;32.65;;;6.15;;
52434;SDS011;38354;52.892;6.148;2024-02-21T06:33:05;40.20;;;6.25;;
52434;SDS011;38354;52.892;6.148;2024-02-21T06:35:33;35.25;;;6.72;;
52434;SDS011;38354;52.892;6.148;2024-02-21T06:37:59;41.03;;;6.55;;
52434;SDS011;38354;52.892;6.148;2024-02-21T06:40:24;36.75;;;6.95;;
52434;SDS011;38354;52.892;6.148;2024-02-21T06:42:50;38.10;;;6.18;;
52434;SDS011;38354;52.892;6.148;2024-02-21T06:45:16;37.67;;;5.95;;
52434;SDS011;38354;52.892;6.148;2024-02-21T06:47:42;32.28;;;6.22;;
52434;SDS011;38354;52.892;6.148;2024-02-21T06:50:08;25.02;;;5.85;;
52434;SDS011;38354;52.892;6.148;2024-02-21T06:52:34;35.40;;;6.78;;
52434;SDS011;38354;52.892;6.148;2024-02-21T06:55:01;34.85;;;7.03;;
52434;SDS011;38354;52.892;6.148;2024-02-21T06:57:29;34.78;;;6.78;;
52434;SDS011;38354;52.892;6.148;2024-02-21T06:59:55;22.60;;;5.70;;
52434;SDS011;38354;52.892;6.148;2024-02-21T07:02:20;22.88;;;5.43;;
52434;SDS011;38354;52.892;6.148;2024-02-21T07:04:46;20.52;;;5.65;;
52434;SDS011;38354;52.892;6.148;2024-02-21T07:07:12;16.77;;;4.95;;
52434;SDS011;38354;52.892;6.148;2024-02-21T07:09:38;24.50;;;5.50;;
52434;SDS011;38354;52.892;6.148;2024-02-21T07:12:04;25.50;;;5.00;;
52434;SDS011;38354;52.892;6.148;2024-02-21T07:14:30;26.80;;;5.85;;
52434;SDS011;38354;52.892;6.148;2024-02-21T07:16:57;27.65;;;5.32;;
52434;SDS011;38354;52.892;6.148;2024-02-21T07:19:23;26.30;;;5.82;;
52434;SDS011;38354;52.892;6.148;2024-02-21T07:21:49;24.23;;;5.80;;
52434;SDS011;38354;52.892;6.148;2024-02-21T07:24:14;36.28;;;6.88;;
52434;SDS011;38354;52.892;6.148;2024-02-21T07:26:43;24.40;;;5.93;;
52434;SDS011;38354;52.892;6.148;2024-02-21T07:29:09;29.42;;;6.18;;
52434;SDS011;38354;52.892;6.148;2024-02-21T07:31:40;28.02;;;6.20;;
52434;SDS011;38354;52.892;6.148;2024-02-21T07:34:09;32.08;;;6.95;;
52434;SDS011;38354;52.892;6.148;2024-02-21T07:36:35;31.23;;;7.68;;
52434;SDS011;38354;52.892;6.148;2024-02-21T07:39:02;26.38;;;8.07;;
52434;SDS011;38354;52.892;6.148;2024-02-21T07:41:29;30.80;;;8.65;;
52434;SDS011;38354;52.892;6.148;2024-02-21T07:43:55;28.10;;;7.95;;
52434;SDS011;38354;52.892;6.148;2024-02-21T07:46:21;31.15;;;9.65;;
52434;SDS011;38354;52.892;6.148;2024-02-21T07:48:47;27.50;;;9.38;;
52434;SDS011;38354;52.892;6.148;2024-02-21T07:51:14;40.85;;;11.98;;
52434;SDS011;38354;52.892;6.148;2024-02-21T07:53:41;26.02;;;11.38;;
52434;SDS011;38354;52.892;6.148;2024-02-21T07:56:10;27.05;;;10.43;;
52434;SDS011;38354;52.892;6.148;2024-02-21T07:58:36;25.92;;;11.38;;
52434;SDS011;38354;52.892;6.148;2024-02-21T08:01:02;32.17;;;10.95;;
52434;SDS011;38354;52.892;6.148;2024-02-21T08:03:27;31.83;;;12.80;;
52434;SDS011;38354;52.892;6.148;2024-02-21T08:05:53;31.52;;;13.35;;
52434;SDS011;38354;52.892;6.148;2024-02-21T08:08:19;35.80;;;14.00;;
52434;SDS011;38354;52.892;6.148;2024-02-21T08:10:47;31.15;;;12.63;;
52434;SDS011;38354;52.892;6.148;2024-02-21T08:13:13;38.80;;;13.98;;
52434;SDS011;38354;52.892;6.148;2024-02-21T08:15:38;29.33;;;13.25;;
52434;SDS011;38354;52.892;6.148;2024-02-21T08:18:05;30.50;;;12.43;;
52434;SDS011;38354;52.892;6.148;2024-02-21T08:20:30;33.38;;;13.70;;
52434;SDS011;38354;52.892;6.148;2024-02-21T08:22:56;38.08;;;13.68;;
52434;SDS011;38354;52.892;6.148;2024-02-21T08:25:22;33.50;;;13.68;;
52434;SDS011;38354;52.892;6.148;2024-02-21T08:27:48;34.97;;;13.93;;
52434;SDS011;38354;52.892;6.148;2024-02-21T08:30:13;37.45;;;15.60;;
52434;SDS011;38354;52.892;6.148;2024-02-21T08:32:39;35.60;;;13.77;;
52434;SDS011;38354;52.892;6.148;2024-02-21T08:35:05;36.95;;;14.30;;
52434;SDS011;38354;52.892;6.148;2024-02-21T08:37:31;32.78;;;13.85;;
52434;SDS011;38354;52.892;6.148;2024-02-21T08:39:57;31.02;;;14.55;;
52434;SDS011;38354;52.892;6.148;2024-02-21T08:42:23;31.38;;;14.80;;
52434;SDS011;38354;52.892;6.148;2024-02-21T08:44:49;36.45;;;14.38;;
52434;SDS011;38354;52.892;6.148;2024-02-21T08:47:15;35.28;;;13.02;;
52434;SDS011;38354;52.892;6.148;2024-02-21T08:49:41;33.38;;;15.30;;
52434;SDS011;38354;52.892;6.148;2024-02-21T08:52:06;29.77;;;14.35;;
52434;SDS011;38354;52.892;6.148;2024-02-21T08:54:32;33.33;;;15.57;;
52434;SDS011;38354;52.892;6.148;2024-02-21T08:56:58;30.55;;;14.18;;
52434;SDS011;38354;52.892;6.148;2024-02-21T08:59:24;33.28;;;13.88;;
52434;SDS011;38354;52.892;6.148;2024-02-21T09:01:51;28.63;;;13.60;;
52434;SDS011;38354;52.892;6.148;2024-02-21T09:04:20;29.13;;;14.20;;
52434;SDS011;38354;52.892;6.148;2024-02-21T09:06:45;29.48;;;14.35;;
52434;SDS011;38354;52.892;6.148;2024-02-21T09:09:11;32.75;;;13.82;;
52434;SDS011;38354;52.892;6.148;2024-02-21T09:11:37;31.55;;;13.88;;
52434;SDS011;38354;52.892;6.148;2024-02-21T09:14:05;26.40;;;12.50;;
52434;SDS011;38354;52.892;6.148;2024-02-21T09:16:33;27.17;;;14.50;;
52434;SDS011;38354;52.892;6.148;2024-02-21T09:18:59;37.67;;;16.85;;
52434;SDS011;38354;52.892;6.148;2024-02-21T09:21:25;38.35;;;18.10;;
52434;SDS011;38354;52.892;6.148;2024-02-21T09:23:51;38.40;;;17.77;;
52434;SDS011;38354;52.892;6.148;2024-02-21T09:26:17;37.65;;;16.95;;
52434;SDS011;38354;52.892;6.148;2024-02-21T09:28:43;37.72;;;18.73;;
52434;SDS011;38354;52.892;6.148;2024-02-21T09:31:12;33.30;;;17.95;;
52434;SDS011;38354;52.892;6.148;2024-02-21T09:33:37;30.42;;;16.55;;
52434;SDS011;38354;52.892;6.148;2024-02-21T09:36:03;33.33;;;16.65;;
52434;SDS011;38354;52.892;6.148;2024-02-21T09:38:32;32.22;;;16.92;;
52434;SDS011;38354;52.892;6.148;2024-02-21T09:40:59;30.63;;;16.50;;
52434;SDS011;38354;52.892;6.148;2024-02-21T09:43:28;32.30;;;16.65;;
52434;SDS011;38354;52.892;6.148;2024-02-21T09:45:55;33.42;;;16.92;;
52434;SDS011;38354;52.892;6.148;2024-02-21T09:48:42;38.58;;;17.50;;
52434;SDS011;38354;52.892;6.148;2024-02-21T09:51:14;32.05;;;17.38;;
52434;SDS011;38354;52.892;6.148;2024-02-21T09:53:41;38.88;;;18.95;;
52434;SDS011;38354;52.892;6.148;2024-02-21T09:56:08;38.65;;;19.58;;
52434;SDS011;38354;52.892;6.148;2024-02-21T09:58:34;38.50;;;17.55;;
52434;SDS011;38354;52.892;6.148;2024-02-21T10:01:00;36.97;;;17.17;;
52434;SDS011;38354;52.892;6.148;2024-02-21T10:03:26;34.28;;;17.92;;
52434;SDS011;38354;52.892;6.148;2024-02-21T10:05:52;40.17;;;18.20;;
52434;SDS011;38354;52.892;6.148;2024-02-21T10:08:18;39.55;;;18.23;;
52434;SDS011;38354;52.892;6.148;2024-02-21T10:10:45;33.58;;;16.80;;
52434;SDS011;38354;52.892;6.148;2024-02-21T10:13:21;36.38;;;18.50;;
52434;SDS011;38354;52.892;6.148;2024-02-21T10:16:27;30.15;;;16.05;;
52434;SDS011;38354;52.892;6.148;2024-02-21T10:18:46;36.35;;;17.25;;
52434;SDS011;38354;52.892;6.148;2024-02-21T10:21:12;29.65;;;16.23;;
52434;SDS011;38354;52.892;6.148;2024-02-21T10:23:56;39.30;;;18.25;;
52434;SDS011;38354;52.892;6.148;2024-02-21T10:26:21;31.98;;;15.65;;
52434;SDS011;38354;52.892;6.148;2024-02-21T10:28:47;33.05;;;16.30;;
52434;SDS011;38354;52.892;6.148;2024-02-21T10:33:59;30.10;;;15.10;;
52434;SDS011;38354;52.892;6.148;2024-02-21T10:36:28;32.63;;;16.70;;
52434;SDS011;38354;52.892;6.148;2024-02-21T10:38:55;31.80;;;15.65;;
52434;SDS011;38354;52.892;6.148;2024-02-21T10:41:21;36.22;;;15.40;;
52434;SDS011;38354;52.892;6.148;2024-02-21T10:43:52;28.63;;;14.88;;
52434;SDS011;38354;52.892;6.148;2024-02-21T10:46:20;28.85;;;14.07;;
52434;SDS011;38354;52.892;6.148;2024-02-21T10:48:47;29.45;;;15.55;;
52434;SDS011;38354;52.892;6.148;2024-02-21T10:51:18;30.10;;;14.30;;
52434;SDS011;38354;52.892;6.148;2024-02-21T10:56:42;25.88;;;13.50;;
52434;SDS011;38354;52.892;6.148;2024-02-21T10:59:08;24.02;;;12.80;;
52434;SDS011;38354;52.892;6.148;2024-02-21T11:01:34;25.67;;;13.13;;
52434;SDS011;38354;52.892;6.148;2024-02-21T11:04:10;23.63;;;12.38;;
52434;SDS011;38354;52.892;6.148;2024-02-21T11:06:37;26.60;;;11.98;;
52434;SDS011;38354;52.892;6.148;2024-02-21T11:09:07;21.70;;;11.57;;
52434;SDS011;38354;52.892;6.148;2024-02-21T11:11:34;23.92;;;12.07;;
52434;SDS011;38354;52.892;6.148;2024-02-21T11:14:10;24.38;;;11.80;;
52434;SDS011;38354;52.892;6.148;2024-02-21T11:16:42;25.15;;;12.50;;
52434;SDS011;38354;52.892;6.148;2024-02-21T11:21:44;23.17;;;11.27;;
52434;SDS011;38354;52.892;6.148;2024-02-21T11:24:10;22.15;;;11.50;;
52434;SDS011;38354;52.892;6.148;2024-02-21T11:26:37;21.08;;;10.85;;
52434;SDS011;38354;52.892;6.148;2024-02-21T11:29:03;25.55;;;12.02;;
52434;SDS011;38354;52.892;6.148;2024-02-21T11:31:44;22.88;;;10.77;;
52434;SDS011;38354;52.892;6.148;2024-02-21T11:34:16;21.08;;;10.88;;
52434;SDS011;38354;52.892;6.148;2024-02-21T11:36:50;21.27;;;9.90;;
52434;SDS011;38354;52.892;6.148;2024-02-21T11:39:20;16.70;;;8.30;;
52434;SDS011;38354;52.892;6.148;2024-02-21T11:42:03;19.30;;;10.60;;
52434;SDS011;38354;52.892;6.148;2024-02-21T11:44:34;19.23;;;9.25;;
52434;SDS011;38354;52.892;6.148;2024-02-21T11:47:03;16.15;;;8.93;;
52434;SDS011;38354;52.892;6.148;2024-02-21T11:49:29;19.08;;;9.57;;
52434;SDS011;38354;52.892;6.148;2024-02-21T11:52:02;17.77;;;9.05;;
52434;SDS011;38354;52.892;6.148;2024-02-21T11:54:32;20.38;;;10.32;;
52434;SDS011;38354;52.892;6.148;2024-02-21T11:56:58;17.67;;;9.15;;
52434;SDS011;38354;52.892;6.148;2024-02-21T11:59:25;16.00;;;8.38;;
52434;SDS011;38354;52.892;6.148;2024-02-21T12:01:52;15.65;;;7.80;;
52434;SDS011;38354;52.892;6.148;2024-02-21T12:04:18;20.27;;;8.40;;
52434;SDS011;38354;52.892;6.148;2024-02-21T12:06:45;15.77;;;8.18;;
52434;SDS011;38354;52.892;6.148;2024-02-21T12:09:15;16.30;;;7.97;;
52434;SDS011;38354;52.892;6.148;2024-02-21T12:11:44;13.43;;;7.60;;
52434;SDS011;38354;52.892;6.148;2024-02-21T12:14:10;14.75;;;7.50;;
52434;SDS011;38354;52.892;6.148;2024-02-21T12:16:36;16.95;;;6.97;;
52434;SDS011;38354;52.892;6.148;2024-02-21T12:19:02;18.45;;;7.72;;
52434;SDS011;38354;52.892;6.148;2024-02-21T12:21:32;13.75;;;7.30;;
52434;SDS011;38354;52.892;6.148;2024-02-21T12:24:11;12.80;;;7.05;;
52434;SDS011;38354;52.892;6.148;2024-02-21T12:26:39;15.38;;;7.13;;
52434;SDS011;38354;52.892;6.148;2024-02-21T12:29:05;14.95;;;6.68;;
52434;SDS011;38354;52.892;6.148;2024-02-21T12:31:31;13.38;;;6.70;;
52434;SDS011;38354;52.892;6.148;2024-02-21T12:33:56;13.77;;;6.07;;
52434;SDS011;38354;52.892;6.148;2024-02-21T12:36:22;14.65;;;7.05;;
52434;SDS011;38354;52.892;6.148;2024-02-21T12:38:48;13.63;;;6.95;;
52434;SDS011;38354;52.892;6.148;2024-02-21T12:41:14;14.80;;;6.32;;
52434;SDS011;38354;52.892;6.148;2024-02-21T12:43:40;13.10;;;6.70;;
52434;SDS011;38354;52.892;6.148;2024-02-21T12:46:06;12.27;;;6.55;;
52434;SDS011;38354;52.892;6.148;2024-02-21T12:48:32;12.38;;;6.43;;
52434;SDS011;38354;52.892;6.148;2024-02-21T12:50:59;13.80;;;6.40;;
52434;SDS011;38354;52.892;6.148;2024-02-21T12:53:24;10.25;;;5.88;;
52434;SDS011;38354;52.892;6.148;2024-02-21T12:55:50;11.38;;;6.20;;
52434;SDS011;38354;52.892;6.148;2024-02-21T12:58:16;11.95;;;5.80;;
52434;SDS011;38354;52.892;6.148;2024-02-21T13:00:42;13.60;;;6.10;;
52434;SDS011;38354;52.892;6.148;2024-02-21T13:03:08;11.73;;;5.93;;
52434;SDS011;38354;52.892;6.148;2024-02-21T13:05:37;12.63;;;5.55;;
52434;SDS011;38354;52.892;6.148;2024-02-21T13:08:04;10.70;;;5.82;;
52434;SDS011;38354;52.892;6.148;2024-02-21T13:10:30;9.77;;;5.97;;
52434;SDS011;38354;52.892;6.148;2024-02-21T13:12:58;14.18;;;7.03;;
52434;SDS011;38354;52.892;6.148;2024-02-21T13:15:24;15.73;;;8.05;;
52434;SDS011;38354;52.892;6.148;2024-02-21T13:17:49;15.90;;;7.95;;
52434;SDS011;38354;52.892;6.148;2024-02-21T13:20:15;12.75;;;6.78;;
52434;SDS011;38354;52.892;6.148;2024-02-21T13:22:41;11.60;;;5.88;;
52434;SDS011;38354;52.892;6.148;2024-02-21T13:25:06;12.35;;;6.65;;
52434;SDS011;38354;52.892;6.148;2024-02-21T13:27:33;9.98;;;5.90;;
52434;SDS011;38354;52.892;6.148;2024-02-21T13:29:58;17.60;;;6.47;;
52434;SDS011;38354;52.892;6.148;2024-02-21T13:32:26;11.13;;;6.38;;
52434;SDS011;38354;52.892;6.148;2024-02-21T13:34:52;10.18;;;5.18;;
52434;SDS011;38354;52.892;6.148;2024-02-21T13:37:18;9.98;;;5.85;;
52434;SDS011;38354;52.892;6.148;2024-02-21T13:39:43;12.65;;;6.10;;
52434;SDS011;38354;52.892;6.148;2024-02-21T13:42:09;10.50;;;6.07;;
52434;SDS011;38354;52.892;6.148;2024-02-21T13:44:35;8.93;;;5.38;;
52434;SDS011;38354;52.892;6.148;2024-02-21T13:47:02;11.60;;;5.43;;
52434;SDS011;38354;52.892;6.148;2024-02-21T13:49:28;11.80;;;5.85;;
52434;SDS011;38354;52.892;6.148;2024-02-21T13:51:55;11.93;;;5.68;;
52434;SDS011;38354;52.892;6.148;2024-02-21T13:54:21;9.55;;;6.20;;
52434;SDS011;38354;52.892;6.148;2024-02-21T13:56:46;14.32;;;6.28;;
52434;SDS011;38354;52.892;6.148;2024-02-21T13:59:12;10.73;;;6.28;;
52434;SDS011;38354;52.892;6.148;2024-02-21T14:01:41;17.45;;;6.90;;
52434;SDS011;38354;52.892;6.148;2024-02-21T14:04:07;12.55;;;5.57;;
52434;SDS011;38354;52.892;6.148;2024-02-21T14:06:33;11.25;;;6.25;;
52434;SDS011;38354;52.892;6.148;2024-02-21T14:08:59;13.55;;;6.22;;
52434;SDS011;38354;52.892;6.148;2024-02-21T14:11:25;11.27;;;5.75;;
52434;SDS011;38354;52.892;6.148;2024-02-21T14:13:51;10.05;;;5.93;;
52434;SDS011;38354;52.892;6.148;2024-02-21T14:16:17;13.25;;;5.90;;
52434;SDS011;38354;52.892;6.148;2024-02-21T14:18:43;9.00;;;5.38;;
52434;SDS011;38354;52.892;6.148;2024-02-21T14:21:09;10.60;;;5.78;;
52434;SDS011;38354;52.892;6.148;2024-02-21T14:23:39;12.52;;;5.95;;
52434;SDS011;38354;52.892;6.148;2024-02-21T14:26:05;9.68;;;5.22;;
52434;SDS011;38354;52.892;6.148;2024-02-21T14:28:31;9.82;;;5.45;;
52434;SDS011;38354;52.892;6.148;2024-02-21T14:30:59;9.90;;;5.97;;
52434;SDS011;38354;52.892;6.148;2024-02-21T14:33:26;10.25;;;6.20;;
52434;SDS011;38354;52.892;6.148;2024-02-21T14:35:52;9.52;;;5.53;;
52434;SDS011;38354;52.892;6.148;2024-02-21T14:38:18;11.73;;;5.90;;
52434;SDS011;38354;52.892;6.148;2024-02-21T14:40:44;11.85;;;5.70;;
52434;SDS011;38354;52.892;6.148;2024-02-21T14:43:10;14.77;;;5.97;;
52434;SDS011;38354;52.892;6.148;2024-02-21T14:45:36;11.32;;;5.88;;
52434;SDS011;38354;52.892;6.148;2024-02-21T14:48:03;13.38;;;6.22;;
52434;SDS011;38354;52.892;6.148;2024-02-21T14:50:29;14.05;;;6.55;;
52434;SDS011;38354;52.892;6.148;2024-02-21T14:52:55;12.18;;;5.88;;
52434;SDS011;38354;52.892;6.148;2024-02-21T14:55:21;12.05;;;6.75;;
52434;SDS011;38354;52.892;6.148;2024-02-21T14:57:46;12.95;;;6.45;;
52434;SDS011;38354;52.892;6.148;2024-02-21T15:00:12;11.82;;;6.20;;
52434;SDS011;38354;52.892;6.148;2024-02-21T15:02:38;13.57;;;6.47;;
52434;SDS011;38354;52.892;6.148;2024-02-21T15:05:04;12.38;;;7.07;;
52434;SDS011;38354;52.892;6.148;2024-02-21T15:07:31;16.55;;;6.55;;
52434;SDS011;38354;52.892;6.148;2024-02-21T15:09:57;12.13;;;6.22;;
52434;SDS011;38354;52.892;6.148;2024-02-21T15:12:23;14.32;;;6.32;;
52434;SDS011;38354;52.892;6.148;2024-02-21T15:14:51;13.73;;;6.60;;
52434;SDS011;38354;52.892;6.148;2024-02-21T15:17:17;13.38;;;7.00;;
52434;SDS011;38354;52.892;6.148;2024-02-21T15:19:46;15.50;;;6.63;;
52434;SDS011;38354;52.892;6.148;2024-02-21T15:22:12;12.75;;;6.68;;
52434;SDS011;38354;52.892;6.148;2024-02-21T15:24:39;15.48;;;6.60;;
52434;SDS011;38354;52.892;6.148;2024-02-21T15:27:06;12.43;;;5.90;;
52434;SDS011;38354;52.892;6.148;2024-02-21T15:29:32;16.50;;;7.72;;
52434;SDS011;38354;52.892;6.148;2024-02-21T15:31:57;12.57;;;6.28;;
52434;SDS011;38354;52.892;6.148;2024-02-21T15:34:23;16.55;;;6.70;;
52434;SDS011;38354;52.892;6.148;2024-02-21T15:36:49;12.38;;;6.10;;
52434;SDS011;38354;52.892;6.148;2024-02-21T15:39:14;11.48;;;6.55;;
52434;SDS011;38354;52.892;6.148;2024-02-21T15:41:40;18.75;;;7.30;;
52434;SDS011;38354;52.892;6.148;2024-02-21T15:44:06;12.35;;;6.63;;
52434;SDS011;38354;52.892;6.148;2024-02-21T15:46:32;16.85;;;7.03;;
52434;SDS011;38354;52.892;6.148;2024-02-21T15:49:01;13.38;;;7.07;;
52434;SDS011;38354;52.892;6.148;2024-02-21T15:51:26;16.08;;;7.07;;
52434;SDS011;38354;52.892;6.148;2024-02-21T15:53:52;16.48;;;7.32;;
52434;SDS011;38354;52.892;6.148;2024-02-21T15:56:18;14.30;;;7.07;;
52434;SDS011;38354;52.892;6.148;2024-02-21T15:58:44;15.15;;;6.90;;
52434;SDS011;38354;52.892;6.148;2024-02-21T16:01:10;15.35;;;7.32;;
52434;SDS011;38354;52.892;6.148;2024-02-21T16:03:37;13.15;;;6.68;;
52434;SDS011;38354;52.892;6.148;2024-02-21T16:06:03;16.17;;;7.30;;
52434;SDS011;38354;52.892;6.148;2024-02-21T16:08:29;12.18;;;6.57;;
52434;SDS011;38354;52.892;6.148;2024-02-21T16:10:55;14.38;;;7.22;;
52434;SDS011;38354;52.892;6.148;2024-02-21T16:13:21;14.63;;;6.97;;
52434;SDS011;38354;52.892;6.148;2024-02-21T16:15:47;15.73;;;7.82;;
52434;SDS011;38354;52.892;6.148;2024-02-21T16:18:13;13.35;;;7.10;;
52434;SDS011;38354;52.892;6.148;2024-02-21T16:20:45;16.55;;;6.88;;
52434;SDS011;38354;52.892;6.148;2024-02-21T16:23:12;19.45;;;7.20;;
52434;SDS011;38354;52.892;6.148;2024-02-21T16:25:39;12.95;;;6.60;;
52434;SDS011;38354;52.892;6.148;2024-02-21T16:28:05;14.18;;;7.68;;
52434;SDS011;38354;52.892;6.148;2024-02-21T16:30:33;23.15;;;6.70;;
52434;SDS011;38354;52.892;6.148;2024-02-21T16:32:59;16.38;;;6.95;;
52434;SDS011;38354;52.892;6.148;2024-02-21T16:35:25;14.18;;;7.28;;
52434;SDS011;38354;52.892;6.148;2024-02-21T16:37:53;17.45;;;7.20;;
52434;SDS011;38354;52.892;6.148;2024-02-21T16:40:19;17.70;;;7.72;;
52434;SDS011;38354;52.892;6.148;2024-02-21T16:42:45;15.18;;;5.63;;
52434;SDS011;38354;52.892;6.148;2024-02-21T16:45:11;13.55;;;5.43;;
52434;SDS011;38354;52.892;6.148;2024-02-21T16:47:37;13.40;;;6.85;;
52434;SDS011;38354;52.892;6.148;2024-02-21T16:50:03;13.48;;;5.90;;
52434;SDS011;38354;52.892;6.148;2024-02-21T16:52:30;12.30;;;5.07;;
52434;SDS011;38354;52.892;6.148;2024-02-21T16:54:56;11.75;;;5.55;;
52434;SDS011;38354;52.892;6.148;2024-02-21T16:57:22;11.55;;;5.20;;
52434;SDS011;38354;52.892;6.148;2024-02-21T16:59:48;16.20;;;5.88;;
52434;SDS011;38354;52.892;6.148;2024-02-21T17:02:14;12.23;;;5.60;;
52434;SDS011;38354;52.892;6.148;2024-02-21T17:04:39;12.90;;;5.97;;
52434;SDS011;38354;52.892;6.148;2024-02-21T17:07:05;10.52;;;5.60;;
52434;SDS011;38354;52.892;6.148;2024-02-21T17:09:31;11.98;;;6.13;;
52434;SDS011;38354;52.892;6.148;2024-02-21T17:11:58;12.13;;;6.38;;
52434;SDS011;38354;52.892;6.148;2024-02-21T17:14:24;12.45;;;5.80;;
52434;SDS011;38354;52.892;6.148;2024-02-21T17:16:51;12.05;;;5.80;;
52434;SDS011;38354;52.892;6.148;2024-02-21T17:19:18;10.32;;;5.72;;
52434;SDS011;38354;52.892;6.148;2024-02-21T17:21:44;11.30;;;5.93;;
52434;SDS011;38354;52.892;6.148;2024-02-21T17:24:16;10.82;;;4.97;;
52434;SDS011;38354;52.892;6.148;2024-02-21T17:49:14;12.40;;;6.22;;
52434;SDS011;38354;52.892;6.148;2024-02-21T17:52:05;12.07;;;6.30;;
52434;SDS011;38354;52.892;6.148;2024-02-21T17:54:33;11.18;;;6.43;;
52434;SDS011;38354;52.892;6.148;2024-02-21T17:56:59;16.13;;;6.85;;
52434;SDS011;38354;52.892;6.148;2024-02-21T17:59:25;13.27;;;6.57;;
52434;SDS011;38354;52.892;6.148;2024-02-21T18:01:50;14.35;;;6.05;;
52434;SDS011;38354;52.892;6.148;2024-02-21T18:04:16;12.93;;;6.38;;
52434;SDS011;38354;52.892;6.148;2024-02-21T18:06:42;10.48;;;3.88;;
52434;SDS011;38354;52.892;6.148;2024-02-21T18:09:22;10.05;;;5.68;;
52434;SDS011;38354;52.892;6.148;2024-02-21T18:12:00;13.32;;;5.90;;
52434;SDS011;38354;52.892;6.148;2024-02-21T18:14:50;16.65;;;6.68;;
52434;SDS011;38354;52.892;6.148;2024-02-21T18:19:51;15.15;;;6.60;;
52434;SDS011;38354;52.892;6.148;2024-02-21T18:22:20;13.98;;;7.07;;
52434;SDS011;38354;52.892;6.148;2024-02-21T18:24:48;13.63;;;7.07;;
52434;SDS011;38354;52.892;6.148;2024-02-21T18:27:17;13.07;;;6.85;;
52434;SDS011;38354;52.892;6.148;2024-02-21T18:32:45;9.98;;;5.18;;
52434;SDS011;38354;52.892;6.148;2024-02-21T18:35:11;11.63;;;6.53;;
52434;SDS011;38354;52.892;6.148;2024-02-21T18:37:43;12.77;;;6.63;;
52434;SDS011;38354;52.892;6.148;2024-02-21T18:40:24;12.48;;;7.13;;
52434;SDS011;38354;52.892;6.148;2024-02-21T18:43:00;10.52;;;6.32;;
52434;SDS011;38354;52.892;6.148;2024-02-21T18:48:22;13.02;;;6.35;;
52434;SDS011;38354;52.892;6.148;2024-02-21T18:50:58;11.80;;;7.28;;
52434;SDS011;38354;52.892;6.148;2024-02-21T18:56:50;14.65;;;6.80;;
52434;SDS011;38354;52.892;6.148;2024-02-21T18:59:16;15.55;;;7.72;;
52434;SDS011;38354;52.892;6.148;2024-02-21T19:01:42;11.90;;;6.72;;
52434;SDS011;38354;52.892;6.148;2024-02-21T19:04:08;12.25;;;5.82;;
52434;SDS011;38354;52.892;6.148;2024-02-21T19:06:36;12.05;;;6.20;;
52434;SDS011;38354;52.892;6.148;2024-02-21T19:09:02;12.55;;;6.65;;
52434;SDS011;38354;52.892;6.148;2024-02-21T19:11:29;14.32;;;6.80;;
52434;SDS011;38354;52.892;6.148;2024-02-21T19:13:58;13.25;;;6.57;;